Weather observations for the past three days for
Naples, Naples Municipal Airport
Imperial (Metric)
Date Time (edt) Wind (mph) Vis. (mi.) Weather Sky Cond. Temperature (ºF) Relative Humidity Wind Chill (°F) Heat Index (°F) Pressure Precipitation (in)
Air Dwpt 6 hour altimeter (in) sea level (mb) 1 hr 3 hr 6 hr
Max. Min.
09 23:53 S 3 10.00 Fair CLR 81 77 88% 88 29.97 1014.7
09 22:53 Calm 10.00 Fair CLR 81 77 88% 88 29.97 1014.6
09 21:53 Calm 10.00 Fair CLR 82 77 85% 90 29.95 1014.0
09 20:53 SW 7 10.00 Fair CLR 82 77 85% 90 29.92 1013.1
09 19:53 S 9 10.00 Fair CLR 84 75.9 90 82.9 77% 93 29.9 1012.4
09 18:53 S 9 10.00 Fair CLR 84.9 73 68% 92 29.89 1011.9
09 17:53 SW 13 10.00 Fair CLR 87.1 72 61% 94 29.88 1011.7
09 16:53 SW 14 10.00 Fair CLR 88 69.1 54% 92 29.88 1011.8
09 15:53 SW 10 10.00 Fair CLR 88 71.1 57% 94 29.9 1012.4
09 14:53 SW 12 10.00 Fair CLR 89.1 70 53% 94 29.92 1013.1
09 13:53 SW 13 10.00 Fair CLR 90 71.1 90 77 54% 96 29.93 1013.4
09 12:53 S 13 10.00 Fair CLR 88 73 61% 96 29.95 1014.0
09 11:53 SW 15 10.00 A Few Clouds FEW033 88 71.1 57% 94 29.96 1014.3
09 10:53 S 8 10.00 Fair CLR 86 73 65% 93 29.95 1014.2
09 09:53 S 7 10.00 Fair CLR 84 73 70% 90 29.95 1013.9
09 08:53 E 7 10.00 Fair CLR 80.1 72 76% 84 29.94 1013.8
09 07:53 E 5 10.00 Fair CLR 77 73 79 75 88% 78 29.93 1013.4
09 06:53 E 3 8.00 Fair CLR 75 73 94% 73 29.92 1013.2
09 05:53 Calm 9.00 Fair CLR 75.9 73 91% 76 29.91 1012.8
09 04:53 NW 3 10.00 Fair CLR 77 73.9 90% 78 29.91 1012.8
09 03:53 Calm 10.00 Fair CLR 75.9 73.9 94% 75 29.92 1012.9
09 02:53 Calm 10.00 Fair CLR 78.1 73.9 87% 81 29.93 1013.5
09 01:53 Calm 10.00 A Few Clouds FEW065 80.1 75 82.9 79 85% 85 29.95 1014.0
09 00:53 Calm 10.00 Mostly Cloudy FEW018 BKN065 80.1 75 85% 85 29.96 1014.5
08 23:53 NW 5 10.00 Fair CLR 79 75 88% 83 29.97 1014.7
08 22:53 NW 3 10.00 Fair CLR 81 75 82% 87 29.96 1014.3
08 21:53 NW 8 10.00 Fair CLR 81 73.9 79% 86 29.93 1013.5
08 20:53 W 8 10.00 Fair CLR 82 73 74% 87 29.91 1012.8
08 19:53 SW 6 10.00 Fair CLR 82.9 73 88 82.9 72% 89 29.89 1012.1
08 18:53 SW 7 10.00 Fair CLR 84.9 73.9 70% 92 29.89 1011.9
08 17:53 W 8 10.00 Fair CLR 86 73 65% 93 29.89 1011.9
08 16:53 W 8 10.00 Fair CLR 86 73 65% 93 29.89 1012.1
08 15:53 W 10 10.00 Fair CLR 86 73 65% 93 29.91 1012.8
08 14:53 W 12 10.00 A Few Clouds FEW035 87.1 73 63% 95 29.94 1013.8
08 13:53 W 10 10.00 Fair CLR 86 72 88 75 63% 92 29.96 1014.4
08 12:53 W 10 10.00 Fair CLR 86 73 65% 93 29.98 1015.2
08 11:53 W 6 10.00 Partly Cloudy SCT034 86 73 65% 93 30 1015.9
08 10:53 Calm 10.00 Partly Cloudy SCT028 84.9 72 65% 91 30.02 1016.3
08 09:53 NE 6 10.00 Fair CLR 82 72 72% 87 30.01 1016.2
08 08:53 N 5 10.00 Fair CLR 78.1 73.9 87% 81 30.01 1016.0
08 07:53 E 3 7.00 Fair CLR 75 73.9 75.9 73 96% 73 29.99 1015.4
08 06:53 E 3 6.00 Fog/Mist CLR 73 72 96% 29.97 1014.7
08 05:53 E 6 7.00 Fair CLR 73 73 100% 29.94 1013.8
08 04:53 NE 3 7.00 Fair CLR 75 73.9 96% 73 29.94 1013.7
08 03:53 Calm 5.00 Fog/Mist CLR 73.9 73 97% 29.94 1013.7
08 02:53 Calm 8.00 Fair CLR 75 73.9 96% 73 29.94 1013.9
08 01:53 Calm 8.00 Fair CLR 75.9 75 81 75 97% 75 29.95 1014.2
08 00:53 W 5 8.00 Fair CLR 75.9 75 97% 75 29.97 1014.6
07 23:53 W 5 8.00 Fair CLR 75.9 75 97% 75 29.97 1014.8
07 22:53 Calm 9.00 Fair CLR 77 75 94% 78 29.97 1014.7
07 21:53 NW 3 10.00 Fair CLR 78.1 75 90% 81 29.96 1014.4
07 20:53 NW 5 10.00 Fair CLR 79 75 88% 83 29.96 1014.4
07 19:53 NW 8 10.00 Fair CLR 81 73.9 86 81 79% 86 29.96 1014.3
07 18:53 SW 8 10.00 Fair CLR 82 73.9 77% 88 29.95 1014.0
07 17:53 W 8 10.00 Fair CLR 84.9 75 72% 93 29.96 1014.3
07 16:53 W 8 10.00 Fair CLR 84 73.9 72% 91 29.96 1014.3
07 15:53 W 9 10.00 Fair CLR 84.9 73.9 70% 92 29.97 1014.7
07 14:53 SW 9 10.00 Fair CLR 84 73.9 72% 91 29.99 1015.3
07 13:53 W 8 10.00 Fair CLR 86 73 86 75.9 65% 93 30.01 1016.1
07 12:53 SW 9 G 17 10.00 Fair CLR 84.9 73 68% 92 30.02 1016.3
07 11:53 SW 8 10.00 Fair CLR 82.9 73.9 74% 89 30.03 1016.6
07 10:53 SW 7 10.00 Partly Cloudy SCT021 82 73.9 77% 88 30.03 1016.7
07 09:53 SW 8 10.00 Mostly Cloudy SCT023 BKN029 81 73.9 79% 86 30.03 1016.7
07 08:53 E 3 10.00 Fair CLR 79 73.9 85% 83 30.02 1016.4
07 07:53 E 3 10.00 Fair CLR 75.9 73 75.9 72 91% 76 30.01 1016.2
07 06:53 Calm 7.00 Fair CLR 73 72 96% 29.99 1015.5
07 05:53 SE 5 8.00 Fair CLR 73 71.1 94% 29.96 1014.5
07 04:53 SE 5 8.00 Fair CLR 72 71.1 97% 29.97 1014.6
07 03:53 E 3 9.00 Fair CLR 73 71.1 94% 29.97 1014.7
07 02:53 Calm 8.00 Fair CLR 73.9 71.1 91% 29.98 1015.1
07 01:53 E 3 9.00 Fair CLR 75 72 79 75 90% 74 30 1015.6
Date Time (edt) Wind (mph) Vis. (mi.) Weather Sky Cond. Air Dwpt Max. Min. Relative Humidity Wind Chill (°F) Heat Index (°F) altimeter (in) sea level (mb) 1 hr 3 hr 6 hr
6 hour
Temperature (ºF) Pressure Precipitation (in)